< < Back
Terminal Aerodrome Forecast


Current Version              Previous Versions:   1  2  3  4  5  6  7  8  9  

Terminal Aerodrome Forecast

318
FTUS44 KMOB 261432 AAB
TAFMOB
TAF AMD
KMOB 261432Z 2615/2712 07010KT P6SM VCTS SCT030CB SCT060 BKN200
      TEMPO 2615/2618 VRB20KT 2SM TSRA BKN025CB
     FM261800 16012G20KT P6SM VCTS BKN025CB OVC035
     FM270000 18014KT 4SM BR VCSH OVC050=

Latest METAR

623
SAUS80 KWBC 270300
MTRMOB
METAR KMOB 270256Z 20007KT 7SM FEW018 FEW030 SCT250 24/24 A3001 RMK AO2
SLP158 60004 T02440239 53015 $


USA.gov is the U.S. government's official web portal to all federal, state and local government web resources and services.